Česky Dansk Deutsch English Español Suomi Français Magyar Italiano Nederlands norsk Polski Português svenska Türkçe

 

Het Weer

Yola (Nigeria)

09:00, 8 februari 2016 (GMT)

NWNNE
WE
SWSSE
Home            
Yola Garoua Maroua-Salak Ngaoundere Pala Banyo Maiduguri Meiganga Jos Moundou Yoko Ndjamena Bamenda Betare-Oya Koundja Maine-Soroa Makurdi Diffa Bouar Bafia Mamfe Bol-Berim Kano

Om een weerknop op uw website of weblog te plaatsen, copieer onderstaande code en plak die in uw pagina. In het eerste vakje staat HTML-code, in het tweede vakje UBB-code.


Add to Google

Details

Wind speed:2 bf, 5 kn, 2.6 m/s, 5.8 miles/h, 9.3 km/h
Wind direction:ENE, 060°
Visibility: 1000 m, 1.0 km, 3281 ft, 0.6 miles
Het Weer:moderate haze
Temperature:26°C, 79°F
Gefühlte Temperatur:26°C, 78°F
Dew-point:5°C, 41°F
Atmospheric pressure:1018 hPa, 763.6 mmHg, 30.06 inHg, 1.005 atm
Relative humidity:26.0 %
METAR:DNYO 080900Z 06005KT 1000 HZ NSC 26/05 Q1018 NOSIG

Snelkoppelingen

Actuele weersinformatie van de hele wereld. Voeg locaties toe met het plus (+) symbool. Deze snelkoppelingen kunnen worden toegevoegd aan Google.

Lid van de Technetium groep

website free tracking
StatCounter NetStat W3C Validator

24-04-2018 12:25:14
astro.technetium.be money.technetium.be phote.technetium.be tafeltennistafel.technetium.be www.ligfiets.net